Time;durP1;ratioP1;P1;durP2;ratioP2;P2;SDS_P1;SDS_P2;PMS_P1;PMS_P2;Temp;Humidity;BMP_temperature;BMP_pressure;BME280_temperature;BME280_humidity;BME280_pressure;Samples;Min_cycle;Max_cycle;Signal;HPM_P1;HPM_P2
2022/12/09 00:00:01;;;;;;;0.45;0.45;;;;;;;;;;4564918;28;20051;-64
2022/12/09 00:02:11;;;;;;;0.40;0.40;;;;;;;;;;4565327;28;20148;-63
2022/12/09 00:04:21;;;;;;;0.50;0.50;;;;;;;;;;4564245;28;20066;-64
2022/12/09 00:06:32;;;;;;;0.40;0.40;;;;;;;;;;4564992;28;20039;-63
2022/12/09 00:08:42;;;;;;;0.40;0.40;;;;;;;;;;4563039;28;20094;-63
2022/12/09 00:10:52;;;;;;;0.50;0.50;;;;;;;;;;4564854;28;20033;-62
2022/12/09 00:13:03;;;;;;;0.40;0.40;;;;;;;;;;4563260;28;20114;-63
2022/12/09 00:15:13;;;;;;;0.40;0.40;;;;;;;;;;4562702;28;20047;-64
2022/12/09 00:17:23;;;;;;;0.40;0.40;;;;;;;;;;4562081;28;20494;-62
2022/12/09 00:19:34;;;;;;;0.40;0.40;;;;;;;;;;4563317;28;20473;-63
2022/12/09 00:21:44;;;;;;;0.40;0.40;;;;;;;;;;4563157;28;20048;-63
2022/12/09 00:23:57;;;;;;;0.30;0.30;;;;;;;;;;4562813;28;20040;-63
2022/12/09 00:26:08;;;;;;;0.40;0.40;;;;;;;;;;4563291;28;20124;-63
2022/12/09 00:28:18;;;;;;;0.30;0.30;;;;;;;;;;4562256;28;20048;-63
2022/12/09 00:30:28;;;;;;;0.40;0.40;;;;;;;;;;4546865;28;20033;-63
2022/12/09 00:32:39;;;;;;;0.40;0.40;;;;;;;;;;4561582;28;20076;-64
2022/12/09 00:34:49;;;;;;;0.40;0.40;;;;;;;;;;4563968;28;20036;-63
2022/12/09 00:36:59;;;;;;;0.40;0.40;;;;;;;;;;4546513;28;20034;-63
2022/12/09 00:39:11;;;;;;;0.40;0.40;;;;;;;;;;4547883;28;20127;-63
2022/12/09 00:41:21;;;;;;;0.40;0.40;;;;;;;;;;4547960;28;20805;-63
2022/12/09 00:43:32;;;;;;;0.43;0.43;;;;;;;;;;4564921;28;20028;-63
2022/12/09 00:45:43;;;;;;;0.32;0.32;;;;;;;;;;4566646;28;20044;-63
2022/12/09 00:47:54;;;;;;;0.35;0.35;;;;;;;;;;4566438;28;20518;-64
2022/12/09 00:50:04;;;;;;;0.50;0.50;;;;;;;;;;4565957;28;20095;-63
2022/12/09 00:52:15;;;;;;;0.43;0.43;;;;;;;;;;4566081;28;20053;-64
2022/12/09 00:54:25;;;;;;;0.43;0.43;;;;;;;;;;4566113;28;20746;-63
2022/12/09 00:56:35;;;;;;;0.40;0.40;;;;;;;;;;4565167;28;20534;-63
2022/12/09 00:58:46;;;;;;;0.50;0.50;;;;;;;;;;4565768;28;20032;-64
2022/12/09 01:00:56;;;;;;;0.50;0.50;;;;;;;;;;4564947;28;20043;-63
2022/12/09 01:03:10;;;;;;;0.40;0.40;;;;;;;;;;4564785;28;20684;-63
2022/12/09 01:05:21;;;;;;;0.40;0.40;;;;;;;;;;4565721;28;20028;-63
2022/12/09 01:07:31;;;;;;;0.40;0.40;;;;;;;;;;4564881;28;20036;-64
2022/12/09 01:09:42;;;;;;;0.47;0.47;;;;;;;;;;4565077;28;20041;-64
2022/12/09 01:11:52;;;;;;;0.40;0.40;;;;;;;;;;4563908;28;20039;-63
2022/12/09 01:14:02;;;;;;;0.40;0.40;;;;;;;;;;4565891;28;20104;-63
2022/12/09 01:16:17;;;;;;;0.40;0.40;;;;;;;;;;4565802;28;20032;-63
2022/12/09 01:18:28;;;;;;;0.43;0.43;;;;;;;;;;4563813;28;20028;-63
2022/12/09 01:20:38;;;;;;;0.40;0.40;;;;;;;;;;4549627;28;20432;-64
2022/12/09 01:22:49;;;;;;;0.40;0.40;;;;;;;;;;4564862;28;20028;-64
2022/12/09 01:24:59;;;;;;;0.50;0.50;;;;;;;;;;4547485;28;20557;-64
2022/12/09 01:27:09;;;;;;;0.50;0.50;;;;;;;;;;4565632;28;20039;-64
2022/12/09 01:29:19;;;;;;;0.45;0.45;;;;;;;;;;4566058;28;20032;-63
2022/12/09 01:31:30;;;;;;;0.40;0.40;;;;;;;;;;4564356;28;20094;-64
2022/12/09 01:33:40;;;;;;;0.50;0.50;;;;;;;;;;4551195;28;20092;-63
2022/12/09 01:35:51;;;;;;;0.45;0.45;;;;;;;;;;4564906;28;20034;-64
2022/12/09 01:38:02;;;;;;;0.43;0.43;;;;;;;;;;4565666;28;20063;-63
2022/12/09 01:40:15;;;;;;;0.40;0.40;;;;;;;;;;4562387;28;20698;-64
2022/12/09 01:42:26;;;;;;;0.50;0.50;;;;;;;;;;4549288;28;20029;-63
2022/12/09 01:44:36;;;;;;;0.30;0.30;;;;;;;;;;4564378;28;20040;-63
2022/12/09 01:46:47;;;;;;;0.50;0.50;;;;;;;;;;4563953;28;20495;-64
2022/12/09 01:48:57;;;;;;;0.50;0.50;;;;;;;;;;4545774;28;20496;-63
2022/12/09 01:51:18;;;;;;;0.38;0.38;;;;;;;;;;4567188;28;20065;-63
2022/12/09 01:53:31;;;;;;;0.40;0.40;;;;;;;;;;4564550;28;20041;-63
2022/12/09 01:55:41;;;;;;;0.50;0.50;;;;;;;;;;4556862;28;20037;-63
2022/12/09 01:57:51;;;;;;;0.47;0.47;;;;;;;;;;4550637;28;20049;-63
2022/12/09 02:00:02;;;;;;;0.30;0.30;;;;;;;;;;4549748;28;20040;-63
2022/12/09 02:02:15;;;;;;;0.40;0.40;;;;;;;;;;4563508;28;20840;-64
2022/12/09 02:04:27;;;;;;;0.32;0.32;;;;;;;;;;4563851;28;20047;-64
2022/12/09 02:06:37;;;;;;;0.47;0.47;;;;;;;;;;4551119;28;20612;-64
2022/12/09 02:08:49;;;;;;;0.50;0.50;;;;;;;;;;4546461;28;20036;-63
2022/12/09 02:11:01;;;;;;;0.40;0.40;;;;;;;;;;4534554;28;20041;-63
2022/12/09 02:13:22;;;;;;;0.50;0.50;;;;;;;;;;4548016;28;20394;-63
2022/12/09 02:15:36;;;;;;;0.40;0.40;;;;;;;;;;4545552;28;20642;-63
2022/12/09 02:17:52;;;;;;;0.40;0.40;;;;;;;;;;4550770;28;20771;-63
2022/12/09 02:20:15;;;;;;;0.40;0.40;;;;;;;;;;4547914;28;20571;-63
2022/12/09 02:22:30;;;;;;;0.47;0.47;;;;;;;;;;4546665;28;20124;-63
2022/12/09 02:25:04;;;;;;;0.40;0.40;;;;;;;;;;4564761;28;20186;-63
2022/12/09 02:27:14;;;;;;;0.50;0.50;;;;;;;;;;4547002;28;20787;-63
2022/12/09 02:29:35;;;;;;;0.40;0.40;;;;;;;;;;4564632;28;20153;-63
2022/12/09 02:32:05;;;;;;;0.40;0.40;;;;;;;;;;4545262;28;20037;-63
2022/12/09 02:34:18;;;;;;;0.50;0.50;;;;;;;;;;4563870;28;20048;-64
2022/12/09 02:36:40;;;;;;;0.38;0.38;;;;;;;;;;4548399;28;20106;-63
2022/12/09 02:38:51;;;;;;;0.47;0.47;;;;;;;;;;4556205;28;20036;-64
2022/12/09 02:41:11;;;;;;;0.50;0.50;;;;;;;;;;4556019;28;20048;-63
2022/12/09 02:43:28;;;;;;;0.30;0.30;;;;;;;;;;4550155;28;20872;-63
2022/12/09 02:45:40;;;;;;;0.32;0.32;;;;;;;;;;4562858;28;20020;-63
2022/12/09 02:47:51;;;;;;;0.40;0.40;;;;;;;;;;4555646;28;20625;-63
2022/12/09 02:50:04;;;;;;;0.50;0.50;;;;;;;;;;4563144;28;20134;-64
2022/12/09 02:52:16;;;;;;;0.40;0.40;;;;;;;;;;4566299;28;20155;-64
2022/12/09 02:54:28;;;;;;;0.40;0.40;;;;;;;;;;4546674;28;20724;-64
2022/12/09 02:56:40;;;;;;;0.43;0.43;;;;;;;;;;4548959;28;20037;-64
2022/12/09 02:58:50;;;;;;;0.40;0.40;;;;;;;;;;4539343;28;20083;-64
2022/12/09 03:01:28;;;;;;;0.40;0.40;;;;;;;;;;4546339;28;20488;-63
2022/12/09 03:03:38;;;;;;;0.40;0.40;;;;;;;;;;4563488;28;20059;-63
2022/12/09 03:05:53;;;;;;;0.60;0.60;;;;;;;;;;4563776;28;20035;-64
2022/12/09 03:08:04;;;;;;;0.45;0.45;;;;;;;;;;4564016;28;20063;-64
2022/12/09 03:10:26;;;;;;;0.50;0.50;;;;;;;;;;4565763;28;20431;-63
2022/12/09 03:12:38;;;;;;;0.40;0.40;;;;;;;;;;4564003;28;20641;-64
2022/12/09 03:14:51;;;;;;;0.40;0.40;;;;;;;;;;4563141;28;20032;-64
2022/12/09 03:17:11;;;;;;;0.50;0.50;;;;;;;;;;4563852;28;20075;-64
2022/12/09 03:19:27;;;;;;;0.30;0.30;;;;;;;;;;4550716;28;20055;-64
2022/12/09 03:21:41;;;;;;;0.50;0.50;;;;;;;;;;4555468;28;20044;-64
2022/12/09 03:23:53;;;;;;;0.43;0.43;;;;;;;;;;4562910;28;20720;-64
2022/12/09 03:26:04;;;;;;;0.43;0.43;;;;;;;;;;4562677;28;20083;-63
2022/12/09 03:28:23;;;;;;;0.35;0.35;;;;;;;;;;4564743;28;20036;-64
2022/12/09 03:30:35;;;;;;;0.40;0.40;;;;;;;;;;4563289;28;20104;-64
2022/12/09 03:32:46;;;;;;;0.30;0.30;;;;;;;;;;4562503;28;20035;-64
2022/12/09 03:35:00;;;;;;;0.40;0.40;;;;;;;;;;4563179;28;20523;-64
2022/12/09 03:37:10;;;;;;;0.45;0.45;;;;;;;;;;4561928;28;20047;-64
2022/12/09 03:39:24;;;;;;;0.40;0.40;;;;;;;;;;4565426;28;20059;-64
2022/12/09 03:41:35;;;;;;;0.40;0.40;;;;;;;;;;4561998;28;20048;-64
2022/12/09 03:43:54;;;;;;;0.40;0.40;;;;;;;;;;4563625;28;20047;-64
2022/12/09 03:46:04;;;;;;;0.50;0.50;;;;;;;;;;4564014;28;20163;-64
2022/12/09 03:48:14;;;;;;;0.45;0.45;;;;;;;;;;4563940;28;20060;-64
2022/12/09 03:50:27;;;;;;;0.55;0.55;;;;;;;;;;4564100;28;20040;-64
2022/12/09 03:52:43;;;;;;;0.40;0.40;;;;;;;;;;4562530;28;20036;-64
2022/12/09 03:54:56;;;;;;;0.40;0.40;;;;;;;;;;4562350;28;20162;-64
2022/12/09 03:57:08;;;;;;;0.30;0.30;;;;;;;;;;4563633;28;20555;-64
2022/12/09 03:59:19;;;;;;;0.38;0.38;;;;;;;;;;4562040;28;20039;-64
2022/12/09 04:01:30;;;;;;;0.40;0.40;;;;;;;;;;4561086;28;20043;-64
2022/12/09 04:03:43;;;;;;;0.50;0.50;;;;;;;;;;4565768;28;20049;-64
2022/12/09 04:05:53;;;;;;;0.50;0.50;;;;;;;;;;4562975;28;20071;-64
2022/12/09 04:08:04;;;;;;;0.40;0.40;;;;;;;;;;4564797;28;20045;-64
2022/12/09 04:10:14;;;;;;;0.40;0.40;;;;;;;;;;4563577;28;20027;-64
2022/12/09 04:12:24;;;;;;;0.50;0.50;;;;;;;;;;4564738;27;20047;-65
2022/12/09 04:14:34;;;;;;;0.40;0.40;;;;;;;;;;4549592;28;20048;-64
2022/12/09 04:16:45;;;;;;;0.47;0.47;;;;;;;;;;4565684;28;20036;-64
2022/12/09 04:18:55;;;;;;;0.47;0.47;;;;;;;;;;4566053;28;20039;-64
2022/12/09 04:21:06;;;;;;;0.40;0.40;;;;;;;;;;4548776;28;20052;-64
2022/12/09 04:23:17;;;;;;;0.40;0.40;;;;;;;;;;4566790;28;20040;-64
2022/12/09 04:25:27;;;;;;;0.40;0.40;;;;;;;;;;4565313;28;20460;-64
2022/12/09 04:27:37;;;;;;;0.40;0.40;;;;;;;;;;4557346;28;20111;-65
2022/12/09 04:29:48;;;;;;;0.40;0.40;;;;;;;;;;4564853;28;20045;-65
2022/12/09 04:31:58;;;;;;;0.40;0.40;;;;;;;;;;4567152;28;20040;-65
2022/12/09 04:34:08;;;;;;;0.32;0.32;;;;;;;;;;4564574;28;20039;-65
2022/12/09 04:36:19;;;;;;;0.40;0.40;;;;;;;;;;4566926;28;20036;-65
2022/12/09 04:38:29;;;;;;;0.32;0.32;;;;;;;;;;4565128;28;20451;-65
2022/12/09 04:40:39;;;;;;;0.40;0.40;;;;;;;;;;4565579;28;20498;-65
2022/12/09 04:42:50;;;;;;;0.50;0.50;;;;;;;;;;4565090;28;20046;-65
2022/12/09 04:45:00;;;;;;;0.43;0.43;;;;;;;;;;4564796;28;20698;-65
2022/12/09 04:47:10;;;;;;;0.30;0.30;;;;;;;;;;4566295;28;20047;-65
2022/12/09 04:49:21;;;;;;;0.40;0.40;;;;;;;;;;4565122;28;20020;-65
2022/12/09 04:51:31;;;;;;;0.40;0.40;;;;;;;;;;4556845;28;20596;-65
2022/12/09 04:53:42;;;;;;;0.50;0.50;;;;;;;;;;4565350;28;20043;-65
2022/12/09 04:56:18;;;;;;;0.40;0.40;;;;;;;;;;4564908;28;20746;-65
2022/12/09 04:58:29;;;;;;;0.40;0.40;;;;;;;;;;4564204;28;20083;-65
2022/12/09 05:00:39;;;;;;;0.40;0.40;;;;;;;;;;4565409;28;20566;-65
2022/12/09 05:02:49;;;;;;;0.38;0.38;;;;;;;;;;4564988;28;20090;-65
2022/12/09 05:05:00;;;;;;;0.40;0.40;;;;;;;;;;4565375;28;20048;-65
2022/12/09 05:07:10;;;;;;;0.40;0.40;;;;;;;;;;4565847;28;20094;-65
2022/12/09 05:09:21;;;;;;;0.40;0.40;;;;;;;;;;4557599;28;20528;-65
2022/12/09 05:11:31;;;;;;;0.50;0.50;;;;;;;;;;4566190;28;20040;-65
2022/12/09 05:13:42;;;;;;;0.40;0.40;;;;;;;;;;4566353;28;20032;-65
2022/12/09 05:15:53;;;;;;;0.40;0.40;;;;;;;;;;4565225;28;20044;-65
2022/12/09 05:18:03;;;;;;;0.32;0.32;;;;;;;;;;4565871;28;20107;-65
2022/12/09 05:20:13;;;;;;;0.40;0.40;;;;;;;;;;4567226;28;20156;-65
2022/12/09 05:22:24;;;;;;;9.38;7.47;;;;;;;;;;4565546;28;20975;-65
2022/12/09 05:24:34;;;;;;;3.72;3.22;;;;;;;;;;4564039;28;20059;-65
2022/12/09 05:26:44;;;;;;;0.40;0.40;;;;;;;;;;4563935;28;20044;-65
2022/12/09 05:28:55;;;;;;;0.40;0.40;;;;;;;;;;4565362;28;20127;-65
2022/12/09 05:31:07;;;;;;;0.50;0.50;;;;;;;;;;4564482;28;20036;-65
2022/12/09 05:33:17;;;;;;;0.50;0.50;;;;;;;;;;4564108;28;20028;-65
2022/12/09 05:35:28;;;;;;;0.43;0.40;;;;;;;;;;4565470;28;20080;-65
2022/12/09 05:37:38;;;;;;;0.40;0.40;;;;;;;;;;4564158;28;20098;-65
2022/12/09 05:39:48;;;;;;;0.45;0.45;;;;;;;;;;4546501;28;20045;-65
2022/12/09 05:41:59;;;;;;;0.50;0.50;;;;;;;;;;4566226;28;20032;-65
2022/12/09 05:44:10;;;;;;;0.50;0.50;;;;;;;;;;4564490;28;20032;-65
2022/12/09 05:46:21;;;;;;;0.40;0.40;;;;;;;;;;4564433;28;20064;-65
2022/12/09 05:48:31;;;;;;;0.40;0.40;;;;;;;;;;4564901;28;20123;-65
2022/12/09 05:50:41;;;;;;;0.60;0.60;;;;;;;;;;4565655;28;20115;-65
2022/12/09 05:52:52;;;;;;;0.40;0.40;;;;;;;;;;4564634;28;20127;-65
2022/12/09 05:55:03;;;;;;;0.40;0.40;;;;;;;;;;4564553;28;20032;-65
2022/12/09 05:57:14;;;;;;;0.32;0.32;;;;;;;;;;4564873;28;20656;-65
2022/12/09 05:59:24;;;;;;;0.50;0.50;;;;;;;;;;4567660;28;20036;-66
2022/12/09 06:01:34;;;;;;;0.60;0.60;;;;;;;;;;4548070;28;20167;-65
2022/12/09 06:03:45;;;;;;;0.32;0.32;;;;;;;;;;4550294;28;20048;-65
2022/12/09 06:05:55;;;;;;;0.80;0.80;;;;;;;;;;4565429;28;20024;-65
2022/12/09 06:08:06;;;;;;;0.57;0.57;;;;;;;;;;4563330;28;20052;-65
2022/12/09 06:10:16;;;;;;;0.47;0.47;;;;;;;;;;4566050;28;20048;-65
2022/12/09 06:12:27;;;;;;;0.50;0.50;;;;;;;;;;4565456;28;20029;-65
2022/12/09 06:14:37;;;;;;;0.55;0.55;;;;;;;;;;4545809;28;20029;-65
2022/12/09 06:16:47;;;;;;;0.40;0.40;;;;;;;;;;4564364;28;20037;-65
2022/12/09 06:18:57;;;;;;;0.38;0.38;;;;;;;;;;4564865;28;20488;-65
2022/12/09 06:21:09;;;;;;;0.40;0.40;;;;;;;;;;4565621;28;20040;-65
2022/12/09 06:23:19;;;;;;;0.50;0.50;;;;;;;;;;4565638;28;20098;-65
2022/12/09 06:25:29;;;;;;;0.40;0.40;;;;;;;;;;4565300;28;20532;-65
2022/12/09 06:27:40;;;;;;;0.52;0.50;;;;;;;;;;4564733;28;20040;-65
2022/12/09 06:29:50;;;;;;;0.40;0.40;;;;;;;;;;4564876;28;20029;-65
2022/12/09 06:32:00;;;;;;;0.40;0.40;;;;;;;;;;4564281;28;20039;-65
2022/12/09 06:34:11;;;;;;;0.40;0.40;;;;;;;;;;4562640;28;20032;-65
2022/12/09 06:36:21;;;;;;;1.20;1.10;;;;;;;;;;4562443;28;20048;-65
2022/12/09 06:38:32;;;;;;;0.50;0.50;;;;;;;;;;4565586;28;20146;-66
2022/12/09 06:40:43;;;;;;;0.50;0.50;;;;;;;;;;4565352;28;20032;-65
2022/12/09 06:42:53;;;;;;;0.47;0.47;;;;;;;;;;4564939;28;20262;-65
2022/12/09 06:45:04;;;;;;;0.85;0.82;;;;;;;;;;4565402;28;20064;-66
2022/12/09 06:47:14;;;;;;;3.03;2.72;;;;;;;;;;4564948;28;20040;-65
2022/12/09 06:49:24;;;;;;;5.20;4.70;;;;;;;;;;4564321;28;20075;-65
2022/12/09 06:51:35;;;;;;;7.13;6.43;;;;;;;;;;4549848;28;20036;-65
2022/12/09 06:53:45;;;;;;;0.60;0.60;;;;;;;;;;4563561;28;20895;-65
2022/12/09 06:55:59;;;;;;;3.42;3.13;;;;;;;;;;4564699;28;20231;-65
2022/12/09 06:58:10;;;;;;;3.20;2.80;;;;;;;;;;4528980;28;20029;-65
2022/12/09 07:00:20;;;;;;;2.60;2.40;;;;;;;;;;4563674;28;20049;-65
2022/12/09 07:02:32;;;;;;;2.55;2.35;;;;;;;;;;4563158;28;20044;-65
2022/12/09 07:04:42;;;;;;;0.63;0.60;;;;;;;;;;4565149;28;20490;-65
2022/12/09 07:06:52;;;;;;;2.03;1.83;;;;;;;;;;4565391;28;20300;-65
2022/12/09 07:09:04;;;;;;;0.50;0.50;;;;;;;;;;4562567;28;20051;-65
2022/12/09 07:11:15;;;;;;;2.33;2.13;;;;;;;;;;4563470;28;20036;-65
2022/12/09 07:13:25;;;;;;;0.50;0.50;;;;;;;;;;4564122;28;20029;-66
2022/12/09 07:15:35;;;;;;;1.95;1.85;;;;;;;;;;4563671;28;20048;-65
2022/12/09 07:17:46;;;;;;;2.45;2.25;;;;;;;;;;4563441;28;20667;-65
2022/12/09 07:19:56;;;;;;;0.60;0.55;;;;;;;;;;4549210;28;20041;-65
2022/12/09 07:22:06;;;;;;;0.50;0.50;;;;;;;;;;4563737;28;20044;-66
2022/12/09 07:24:17;;;;;;;0.50;0.50;;;;;;;;;;4548892;28;20045;-65
2022/12/09 07:26:31;;;;;;;0.40;0.40;;;;;;;;;;4561891;28;20072;-65
2022/12/09 07:28:41;;;;;;;0.50;0.50;;;;;;;;;;4563446;28;20132;-65
2022/12/09 07:30:52;;;;;;;1.02;0.95;;;;;;;;;;4563273;28;20119;-66
2022/12/09 07:33:02;;;;;;;0.50;0.50;;;;;;;;;;4548249;28;20064;-65
2022/12/09 07:35:12;;;;;;;0.40;0.40;;;;;;;;;;4564826;28;20040;-65
2022/12/09 07:37:23;;;;;;;0.50;0.50;;;;;;;;;;4563313;28;20036;-65
2022/12/09 07:39:33;;;;;;;0.40;0.40;;;;;;;;;;4563961;28;20040;-65
2022/12/09 07:41:43;;;;;;;0.50;0.50;;;;;;;;;;4562828;28;20032;-65
2022/12/09 07:43:54;;;;;;;0.47;0.47;;;;;;;;;;4544951;28;20045;-65
2022/12/09 07:46:05;;;;;;;0.45;0.45;;;;;;;;;;4562645;28;20408;-65
2022/12/09 07:48:15;;;;;;;0.40;0.40;;;;;;;;;;4561766;28;20029;-65
2022/12/09 07:50:26;;;;;;;0.50;0.50;;;;;;;;;;4564028;28;20500;-65
2022/12/09 07:52:36;;;;;;;0.40;0.40;;;;;;;;;;4544527;28;20033;-65
2022/12/09 07:54:46;;;;;;;0.50;0.50;;;;;;;;;;4563143;28;20043;-65
2022/12/09 07:56:57;;;;;;;0.50;0.50;;;;;;;;;;4562556;28;20482;-65
2022/12/09 07:59:07;;;;;;;0.47;0.47;;;;;;;;;;4562726;28;20124;-65
2022/12/09 08:01:23;;;;;;;0.50;0.50;;;;;;;;;;4562634;28;20044;-65
2022/12/09 08:03:33;;;;;;;2.30;2.10;;;;;;;;;;4562704;28;20588;-65
2022/12/09 08:05:51;;;;;;;2.20;2.00;;;;;;;;;;4562927;28;20032;-65
2022/12/09 08:08:01;;;;;;;2.50;2.30;;;;;;;;;;4563800;28;20040;-65
2022/12/09 08:10:11;;;;;;;2.42;2.22;;;;;;;;;;4561434;28;20087;-65
2022/12/09 08:12:22;;;;;;;2.40;2.20;;;;;;;;;;4562419;28;20524;-65
2022/12/09 08:14:32;;;;;;;2.20;2.00;;;;;;;;;;4563619;28;20033;-65
2022/12/09 08:16:43;;;;;;;2.40;2.20;;;;;;;;;;4563281;28;20044;-65
2022/12/09 08:18:54;;;;;;;2.50;2.30;;;;;;;;;;4561066;28;20488;-65
2022/12/09 08:21:09;;;;;;;2.47;2.20;;;;;;;;;;4562085;28;20503;-66
2022/12/09 08:23:19;;;;;;;2.45;2.25;;;;;;;;;;4562301;28;20032;-65
2022/12/09 08:25:29;;;;;;;2.40;2.20;;;;;;;;;;4562258;28;20032;-65
2022/12/09 08:27:40;;;;;;;2.42;2.22;;;;;;;;;;4561648;28;20495;-65
2022/12/09 08:29:50;;;;;;;2.60;2.38;;;;;;;;;;4563144;28;20072;-66
2022/12/09 08:32:00;;;;;;;2.63;2.42;;;;;;;;;;4561066;28;20044;-65
2022/12/09 08:34:12;;;;;;;3.00;2.70;;;;;;;;;;4561769;28;20043;-65
2022/12/09 08:36:26;;;;;;;3.05;2.75;;;;;;;;;;4562237;28;20591;-65
2022/12/09 08:38:36;;;;;;;2.80;2.60;;;;;;;;;;4561638;28;20033;-65
2022/12/09 08:40:46;;;;;;;2.67;2.47;;;;;;;;;;4561062;28;20502;-65
2022/12/09 08:42:57;;;;;;;2.70;2.50;;;;;;;;;;4561964;28;20044;-65
2022/12/09 08:45:07;;;;;;;2.90;2.60;;;;;;;;;;4561628;28;20102;-65
2022/12/09 08:47:18;;;;;;;2.88;2.58;;;;;;;;;;4560682;28;20032;-65
2022/12/09 08:49:28;;;;;;;3.33;2.92;;;;;;;;;;4560414;28;20481;-65
2022/12/09 08:51:38;;;;;;;3.53;2.65;;;;;;;;;;4562011;28;20032;-65
2022/12/09 08:53:49;;;;;;;3.13;2.67;;;;;;;;;;4560251;28;20342;-66
2022/12/09 08:56:06;;;;;;;3.55;3.00;;;;;;;;;;4551967;28;20048;-65
2022/12/09 08:58:16;;;;;;;;;;;;;;;;;;4561537;27;20021;-65
2022/12/09 09:00:26;;;;;;;2.95;2.65;;;;;;;;;;4533475;28;19916;-65
2022/12/09 09:02:37;;;;;;;3.03;2.78;;;;;;;;;;4564652;28;20046;-66
2022/12/09 09:04:47;;;;;;;3.10;2.60;;;;;;;;;;4564625;28;20028;-65
2022/12/09 09:06:58;;;;;;;3.80;3.35;;;;;;;;;;4563463;28;20056;-65
2022/12/09 09:09:10;;;;;;;3.85;3.30;;;;;;;;;;4564636;28;20024;-65
2022/12/09 09:11:20;;;;;;;3.50;3.20;;;;;;;;;;4566589;28;20040;-65
2022/12/09 09:13:30;;;;;;;3.30;3.00;;;;;;;;;;4566055;28;20044;-65
2022/12/09 09:15:40;;;;;;;3.17;2.88;;;;;;;;;;4564631;28;20094;-65
2022/12/09 09:17:52;;;;;;;3.85;3.45;;;;;;;;;;4564920;28;20036;-65
2022/12/09 09:20:02;;;;;;;3.53;3.22;;;;;;;;;;4563653;28;20039;-65
2022/12/09 09:22:13;;;;;;;3.65;3.25;;;;;;;;;;4564748;28;20031;-65
2022/12/09 09:24:23;;;;;;;3.80;3.30;;;;;;;;;;4548489;28;20094;-65
2022/12/09 09:26:34;;;;;;;3.92;3.50;;;;;;;;;;4563483;28;20037;-65
2022/12/09 09:28:45;;;;;;;4.07;3.63;;;;;;;;;;4564704;28;20596;-66
2022/12/09 09:30:59;;;;;;;4.50;3.90;;;;;;;;;;4561908;28;20032;-65
2022/12/09 09:33:09;;;;;;;4.47;4.03;;;;;;;;;;4566301;28;20691;-66
2022/12/09 09:35:19;;;;;;;4.45;3.72;;;;;;;;;;4563871;28;20040;-65
2022/12/09 09:37:30;;;;;;;4.55;4.00;;;;;;;;;;4564330;28;20048;-65
2022/12/09 09:39:41;;;;;;;4.65;4.15;;;;;;;;;;4563469;28;20055;-65
2022/12/09 09:41:52;;;;;;;5.18;4.50;;;;;;;;;;4564813;28;20046;-66
2022/12/09 09:44:08;;;;;;;4.75;4.25;;;;;;;;;;4562578;28;20040;-66
2022/12/09 09:46:22;;;;;;;5.10;4.38;;;;;;;;;;4565434;28;20031;-65
2022/12/09 09:48:34;;;;;;;5.40;4.55;;;;;;;;;;4564197;28;20811;-65
2022/12/09 09:50:50;;;;;;;5.05;4.55;;;;;;;;;;4564483;28;21005;-65
2022/12/09 09:53:09;;;;;;;5.15;4.28;;;;;;;;;;4563301;28;20037;-65
2022/12/09 09:55:24;;;;;;;5.15;4.25;;;;;;;;;;4564788;28;20044;-64
2022/12/09 09:57:40;;;;;;;5.18;4.35;;;;;;;;;;4564668;28;20044;-64
2022/12/09 09:59:56;;;;;;;4.73;4.07;;;;;;;;;;4564335;28;20032;-64
2022/12/09 10:02:17;;;;;;;5.03;4.30;;;;;;;;;;4563288;28;20341;-64
2022/12/09 10:04:37;;;;;;;5.05;4.38;;;;;;;;;;4544594;28;20646;-64
2022/12/09 10:07:10;;;;;;;5.40;4.60;;;;;;;;;;4562366;28;20024;-64
2022/12/09 10:09:23;;;;;;;5.10;4.60;;;;;;;;;;4562119;28;20049;-64
2022/12/09 10:11:37;;;;;;;5.13;4.47;;;;;;;;;;4562435;28;20032;-64
2022/12/09 10:13:53;;;;;;;5.25;4.65;;;;;;;;;;4562820;28;20032;-64
2022/12/09 10:16:03;;;;;;;6.03;5.43;;;;;;;;;;4562736;28;20131;-64
2022/12/09 10:18:19;;;;;;;6.13;5.35;;;;;;;;;;4563419;28;20037;-64
2022/12/09 10:20:30;;;;;;;5.07;4.57;;;;;;;;;;4563243;28;20016;-64
2022/12/09 10:22:43;;;;;;;5.75;4.75;;;;;;;;;;4563467;28;20024;-64
2022/12/09 10:24:55;;;;;;;5.15;4.65;;;;;;;;;;4564182;28;20624;-64
2022/12/09 10:27:06;;;;;;;5.82;5.00;;;;;;;;;;4562962;28;20736;-64
2022/12/09 10:29:21;;;;;;;5.25;4.60;;;;;;;;;;4562842;28;20048;-64
2022/12/09 10:31:32;;;;;;;5.75;5.13;;;;;;;;;;4563926;28;20037;-64
2022/12/09 10:33:42;;;;;;;6.22;5.40;;;;;;;;;;4563587;28;20048;-64
2022/12/09 10:35:52;;;;;;;5.32;4.82;;;;;;;;;;4563129;28;20032;-63
2022/12/09 10:38:08;;;;;;;5.10;4.43;;;;;;;;;;4562632;28;20032;-63
2022/12/09 10:40:20;;;;;;;6.00;5.10;;;;;;;;;;4545975;28;20036;-64
2022/12/09 10:45:03;;;;;;;6.05;5.10;;;;;;;;;;4563160;28;20044;-63
2022/12/09 10:47:23;;;;;;;5.55;5.00;;;;;;;;;;4564954;28;20032;-63
2022/12/09 10:49:34;;;;;;;6.45;5.63;;;;;;;;;;4554779;28;20040;-63
2022/12/09 10:51:48;;;;;;;6.60;5.43;;;;;;;;;;4574316;22;20044;-63
2022/12/09 10:54:01;;;;;;;7.38;5.75;;;;;;;;;;4574311;27;20040;-63
2022/12/09 10:56:16;;;;;;;6.32;5.25;;;;;;;;;;4572183;27;20094;-63
2022/12/09 10:58:28;;;;;;;5.93;5.18;;;;;;;;;;4575816;27;20039;-63
2022/12/09 11:00:38;;;;;;;6.70;5.22;;;;;;;;;;4577002;27;20035;-64
2022/12/09 11:02:50;;;;;;;6.28;5.15;;;;;;;;;;4547617;27;20797;-63
2022/12/09 11:05:18;;;;;;;6.57;5.47;;;;;;;;;;4545039;28;20067;-63
2022/12/09 11:07:29;;;;;;;5.55;4.75;;;;;;;;;;4545271;28;20025;-63
2022/12/09 11:09:43;;;;;;;6.20;5.15;;;;;;;;;;4544594;28;20564;-62
2022/12/09 11:11:54;;;;;;;6.35;5.30;;;;;;;;;;4545040;28;20032;-63
2022/12/09 11:14:21;;;;;;;6.22;5.25;;;;;;;;;;4544238;28;20033;-66
2022/12/09 11:16:31;;;;;;;6.70;5.45;;;;;;;;;;4544898;28;20140;-63
2022/12/09 11:18:43;;;;;;;6.60;5.82;;;;;;;;;;4545747;28;20037;-63
2022/12/09 11:21:01;;;;;;;7.32;5.57;;;;;;;;;;4544421;28;20586;-63
2022/12/09 11:23:11;;;;;;;6.95;5.68;;;;;;;;;;4543130;28;20040;-63
2022/12/09 11:25:30;;;;;;;6.70;5.55;;;;;;;;;;4544084;28;20026;-63
2022/12/09 11:27:46;;;;;;;7.05;5.80;;;;;;;;;;4544292;28;20048;-63
2022/12/09 11:30:23;;;;;;;7.38;6.00;;;;;;;;;;4545393;28;20087;-63
2022/12/09 11:32:49;;;;;;;0.93;0.80;;;;;;;;;;4517636;28;20056;-63
2022/12/09 11:34:59;;;;;;;7.28;6.10;;;;;;;;;;4544811;28;20037;-63
2022/12/09 11:37:10;;;;;;;7.03;5.47;;;;;;;;;;4543796;28;20029;-63
2022/12/09 11:39:23;;;;;;;6.63;5.47;;;;;;;;;;4528055;28;20041;-63
2022/12/09 11:44:12;;;;;;;6.57;5.50;;;;;;;;;;4545697;28;20674;-63
2022/12/09 11:46:30;;;;;;;6.78;5.50;;;;;;;;;;4542101;28;20048;-63
2022/12/09 11:48:42;;;;;;;6.28;5.53;;;;;;;;;;4543471;28;20040;-63
2022/12/09 11:50:52;;;;;;;6.75;5.88;;;;;;;;;;4545118;28;20025;-63
2022/12/09 11:53:06;;;;;;;7.00;5.68;;;;;;;;;;4544524;28;20501;-64
2022/12/09 11:55:23;;;;;;;5.97;5.38;;;;;;;;;;4545753;28;20044;-63
2022/12/09 11:57:36;;;;;;;6.63;5.57;;;;;;;;;;4543646;28;20056;-63
2022/12/09 11:59:48;;;;;;;6.10;5.05;;;;;;;;;;4530478;28;20565;-63
2022/12/09 12:02:12;;;;;;;6.97;5.65;;;;;;;;;;4543828;28;20037;-63
2022/12/09 12:04:44;;;;;;;6.80;5.68;;;;;;;;;;4543753;28;20850;-63
2022/12/09 12:07:04;;;;;;;6.07;5.30;;;;;;;;;;4544169;28;21237;-63
2022/12/09 12:09:18;;;;;;;5.70;4.65;;;;;;;;;;4543127;28;20709;-63
2022/12/09 12:11:33;;;;;;;5.90;5.00;;;;;;;;;;4545274;28;20037;-63
2022/12/09 12:13:45;;;;;;;7.22;6.03;;;;;;;;;;4544439;28;20576;-63
2022/12/09 12:15:58;;;;;;;6.53;5.47;;;;;;;;;;4546128;28;21009;-62
2022/12/09 12:18:12;;;;;;;6.05;5.43;;;;;;;;;;4544221;28;20032;-62
2022/12/09 12:20:35;;;;;;;5.63;4.82;;;;;;;;;;4545113;28;20033;-63
2022/12/09 12:23:08;;;;;;;5.25;4.75;;;;;;;;;;4544291;28;20044;-62
2022/12/09 12:25:27;;;;;;;4.88;4.18;;;;;;;;;;4543343;28;20040;-62
2022/12/09 12:27:49;;;;;;;4.95;4.28;;;;;;;;;;4542263;28;20037;-62
2022/12/09 12:30:13;;;;;;;5.10;4.60;;;;;;;;;;4542585;28;20095;-62
2022/12/09 12:32:32;;;;;;;5.07;4.57;;;;;;;;;;4543566;28;21020;-62
2022/12/09 12:35:03;;;;;;;5.10;4.55;;;;;;;;;;4530735;28;20123;-62
2022/12/09 12:37:16;;;;;;;4.57;4.07;;;;;;;;;;4545895;28;20064;-62
2022/12/09 12:39:33;;;;;;;5.43;4.40;;;;;;;;;;4547772;28;20575;-62
2022/12/09 12:42:13;;;;;;;5.47;4.70;;;;;;;;;;4546057;28;20095;-62
2022/12/09 12:46:58;;;;;;;6.22;5.07;;;;;;;;;;4546562;28;20597;-62
2022/12/09 12:49:21;;;;;;;5.35;4.68;;;;;;;;;;4527340;28;20033;-62
2022/12/09 12:51:31;;;;;;;5.00;4.50;;;;;;;;;;4545484;28;20080;-62
2022/12/09 12:54:08;;;;;;;4.78;4.10;;;;;;;;;;4545798;28;20065;-62
2022/12/09 12:56:22;;;;;;;5.18;4.47;;;;;;;;;;4529415;28;20045;-63
2022/12/09 12:59:08;;;;;;;5.00;4.30;;;;;;;;;;4540560;28;20734;-62
2022/12/09 13:01:28;;;;;;;5.32;4.57;;;;;;;;;;4481856;28;20089;-62
2022/12/09 13:03:44;;;;;;;5.70;4.85;;;;;;;;;;4529675;28;20056;-62
2022/12/09 13:05:55;;;;;;;5.70;5.10;;;;;;;;;;4539981;28;20029;-62
2022/12/09 13:08:09;;;;;;;6.13;5.35;;;;;;;;;;4546293;28;20037;-62
2022/12/09 13:10:39;;;;;;;5.78;5.20;;;;;;;;;;4546763;28;20747;-62
2022/12/09 13:13:00;;;;;;;5.57;4.90;;;;;;;;;;4545274;28;20096;-62
2022/12/09 13:15:12;;;;;;;5.22;4.65;;;;;;;;;;4545873;28;20700;-62
2022/12/09 13:17:25;;;;;;;5.75;4.72;;;;;;;;;;4547745;28;20035;-62
2022/12/09 13:19:41;;;;;;;5.50;5.00;;;;;;;;;;4546054;28;21215;-63
2022/12/09 13:21:51;;;;;;;5.45;4.80;;;;;;;;;;4546982;28;21326;-62
2022/12/09 13:24:02;;;;;;;5.07;4.57;;;;;;;;;;4547268;28;20125;-62